Time;durP1;ratioP1;P1;durP2;ratioP2;P2;SDS_P1;SDS_P2;PMS_P1;PMS_P2;Temp;Humidity;BMP_temperature;BMP_pressure;BME280_temperature;BME280_humidity;BME280_pressure;Samples;Min_cycle;Max_cycle;Signal;HPM_P1;HPM_P2
2022/09/16 00:02:04;;;;;;;;;;;;;;;;;;5011174;28;19976;-72
2022/09/16 00:04:31;;;;;;;;;;;;;;;;;;5018508;28;20391;-72
2022/09/16 00:06:58;;;;;;;;;;;;;;;;;;5012074;28;19929;-72
2022/09/16 00:09:25;;;;;;;;;;;;;;;;;;5017224;28;20439;-72
2022/09/16 00:11:52;;;;;;;;;;;;;;;;;;5021968;28;19936;-71
2022/09/16 00:14:19;;;;;;;;;;;;;;;;;;5001399;28;20431;-72
2022/09/16 00:16:46;;;;;;;;;;;;;;;;;;5018163;28;19921;-71
2022/09/16 00:19:13;;;;;;;;;;;;;;;;;;5003920;28;19948;-71
2022/09/16 00:21:40;;;;;;;;;;;;;;;;;;5021248;28;19975;-72
2022/09/16 00:24:07;;;;;;;;;;;;;;;;;;5015967;28;20302;-72
2022/09/16 00:26:34;;;;;;;;;;;;;;;;;;5020642;28;19925;-71
2022/09/16 00:29:01;;;;;;;;;;;;;;;;;;5022041;28;20355;-72
2022/09/16 00:31:28;;;;;;;;;;;;;;;;;;5014791;28;19932;-71
2022/09/16 00:33:55;;;;;;;;;;;;;;;;;;5014928;28;20630;-71
2022/09/16 00:36:22;;;;;;;;;;;;;;;;;;5023701;28;19920;-71
2022/09/16 00:38:49;;;;;;;;;;;;;;;;;;5003027;28;20463;-72
2022/09/16 00:41:16;;;;;;;;;;;;;;;;;;5018198;28;19935;-72
2022/09/16 00:43:43;;;;;;;;;;;;;;;;;;4998988;28;19928;-72
2022/09/16 00:46:10;;;;;;;;;;;;;;;;;;5021578;28;19992;-71
2022/09/16 00:48:37;;;;;;;;;;;;;;;;;;5021642;28;19976;-72
2022/09/16 00:51:05;;;;;;;;;;;;;;;;;;5004777;28;19921;-72
2022/09/16 00:53:32;;;;;;;;;;;;;;;;;;5020220;28;20012;-72
2022/09/16 00:55:59;;;;;;;;;;;;;;;;;;5020198;28;19931;-72
2022/09/16 00:58:26;;;;;;;;;;;;;;;;;;5021810;28;20046;-72
2022/09/16 01:00:53;;;;;;;;;;;;;;;;;;5000206;28;19921;-72
2022/09/16 01:03:20;;;;;;;;;;;;;;;;;;5001894;28;19933;-72
2022/09/16 01:05:47;;;;;;;;;;;;;;;;;;5017872;28;19928;-72
2022/09/16 01:08:14;;;;;;;;;;;;;;;;;;5021932;28;19936;-72
2022/09/16 01:10:41;;;;;;;;;;;;;;;;;;5019629;28;20358;-72
2022/09/16 01:13:08;;;;;;;;;;;;;;;;;;5002575;28;19944;-73
2022/09/16 01:15:35;;;;;;;;;;;;;;;;;;5015595;28;19925;-72
2022/09/16 01:18:02;;;;;;;;;;;;;;;;;;5014656;28;19999;-72
2022/09/16 01:20:30;;;;;;;;;;;;;;;;;;5016879;28;19925;-73
2022/09/16 01:22:57;;;;;;;;;;;;;;;;;;5019248;28;21444;-73
2022/09/16 01:25:24;;;;;;;;;;;;;;;;;;5018983;28;19929;-73
2022/09/16 01:27:51;;;;;;;;;;;;;;;;;;5017473;28;19970;-72
2022/09/16 01:30:18;;;;;;;;;;;;;;;;;;5019452;28;20513;-73
2022/09/16 01:32:45;;;;;;;;;;;;;;;;;;5018996;28;19924;-73
2022/09/16 01:35:12;;;;;;;;;;;;;;;;;;5014973;28;19958;-74
2022/09/16 01:37:39;;;;;;;;;;;;;;;;;;5013313;28;20376;-73
2022/09/16 01:40:06;;;;;;;;;;;;;;;;;;5018346;28;19959;-73
2022/09/16 01:42:33;;;;;;;;;;;;;;;;;;5019776;28;19925;-72
2022/09/16 01:45:00;;;;;;;;;;;;;;;;;;5013030;28;19925;-73
2022/09/16 01:47:27;;;;;;;;;;;;;;;;;;5020976;28;19921;-73
2022/09/16 01:49:55;;;;;;;;;;;;;;;;;;5014035;28;20020;-72
2022/09/16 01:52:22;;;;;;;;;;;;;;;;;;5015658;28;20299;-73
2022/09/16 01:54:49;;;;;;;;;;;;;;;;;;4997398;28;19933;-72
2022/09/16 01:57:16;;;;;;;;;;;;;;;;;;5018631;28;19929;-72
2022/09/16 01:59:43;;;;;;;;;;;;;;;;;;5019887;28;19925;-72
2022/09/16 02:02:10;;;;;;;;;;;;;;;;;;5001849;28;19921;-72
2022/09/16 02:04:37;;;;;;;;;;;;;;;;;;5020239;28;19986;-72
2022/09/16 02:07:04;;;;;;;;;;;;;;;;;;5016443;28;20396;-72
2022/09/16 02:09:31;;;;;;;;;;;;;;;;;;5016625;28;19929;-72
2022/09/16 02:11:58;;;;;;;;;;;;;;;;;;5001225;28;20013;-73
2022/09/16 02:14:25;;;;;;;;;;;;;;;;;;5017859;28;19987;-72
2022/09/16 02:16:52;;;;;;;;;;;;;;;;;;5013239;28;19961;-73
2022/09/16 02:19:19;;;;;;;;;;;;;;;;;;5014321;28;19929;-73
2022/09/16 02:21:46;;;;;;;;;;;;;;;;;;5010687;28;19948;-73
2022/09/16 02:24:13;;;;;;;;;;;;;;;;;;5019583;28;20008;-72
2022/09/16 02:26:40;;;;;;;;;;;;;;;;;;5018762;28;19940;-73
2022/09/16 02:29:07;;;;;;;;;;;;;;;;;;5013507;28;19925;-73
2022/09/16 02:31:34;;;;;;;;;;;;;;;;;;5013310;28;19939;-73
2022/09/16 02:34:01;;;;;;;;;;;;;;;;;;5021549;28;19925;-68
2022/09/16 02:36:28;;;;;;;;;;;;;;;;;;4997150;28;19938;-70
2022/09/16 02:38:55;;;;;;;;;;;;;;;;;;5014970;28;19925;-71
2022/09/16 02:41:22;;;;;;;;;;;;;;;;;;5014832;28;20393;-71
2022/09/16 02:43:50;;;;;;;;;;;;;;;;;;5019954;28;20028;-71
2022/09/16 02:46:17;;;;;;;;;;;;;;;;;;5020331;28;19983;-71
2022/09/16 02:48:44;;;;;;;;;;;;;;;;;;5016311;28;19930;-72
2022/09/16 02:51:11;;;;;;;;;;;;;;;;;;5017147;28;19943;-72
2022/09/16 02:53:38;;;;;;;;;;;;;;;;;;5017127;28;19928;-71
2022/09/16 02:56:05;;;;;;;;;;;;;;;;;;5017027;28;19931;-72
2022/09/16 02:58:32;;;;;;;;;;;;;;;;;;5015601;28;19921;-71
2022/09/16 03:00:59;;;;;;;;;;;;;;;;;;5014943;28;19932;-72
2022/09/16 03:03:26;;;;;;;;;;;;;;;;;;5001057;28;19971;-72
2022/09/16 03:05:53;;;;;;;;;;;;;;;;;;5016880;28;19936;-72
2022/09/16 03:08:20;;;;;;;;;;;;;;;;;;5019540;28;19925;-72
2022/09/16 03:10:47;;;;;;;;;;;;;;;;;;5016540;28;20014;-71
2022/09/16 03:13:14;;;;;;;;;;;;;;;;;;5018607;28;19925;-71
2022/09/16 03:15:41;;;;;;;;;;;;;;;;;;5014049;28;19995;-72
2022/09/16 03:18:08;;;;;;;;;;;;;;;;;;4996494;28;19925;-72
2022/09/16 03:20:35;;;;;;;;;;;;;;;;;;4995737;28;19936;-72
2022/09/16 03:23:02;;;;;;;;;;;;;;;;;;4996020;28;19929;-72
2022/09/16 03:25:29;;;;;;;;;;;;;;;;;;5012845;28;20041;-72
2022/09/16 03:27:56;;;;;;;;;;;;;;;;;;5018562;28;20006;-72
2022/09/16 03:30:23;;;;;;;;;;;;;;;;;;4996647;28;19924;-72
2022/09/16 03:32:50;;;;;;;;;;;;;;;;;;5016928;28;19928;-72
2022/09/16 03:35:17;;;;;;;;;;;;;;;;;;5019079;28;19944;-72
2022/09/16 03:37:44;;;;;;;;;;;;;;;;;;4997441;28;19936;-72
2022/09/16 03:40:11;;;;;;;;;;;;;;;;;;5015111;28;19929;-72
2022/09/16 03:42:38;;;;;;;;;;;;;;;;;;4993172;28;19922;-71
2022/09/16 03:45:06;;;;;;;;;;;;;;;;;;5013808;28;19930;-73
2022/09/16 03:47:33;;;;;;;;;;;;;;;;;;5013586;28;19961;-72
2022/09/16 03:50:00;;;;;;;;;;;;;;;;;;5009887;28;19929;-72
2022/09/16 03:52:27;;;;;;;;;;;;;;;;;;5014043;28;19929;-71
2022/09/16 03:54:53;;;;;;;;;;;;;;;;;;5014355;28;19925;-72
2022/09/16 03:57:21;;;;;;;;;;;;;;;;;;5013061;28;19979;-72
2022/09/16 03:59:47;;;;;;;;;;;;;;;;;;5004037;28;19925;-71
2022/09/16 04:02:15;;;;;;;;;;;;;;;;;;5021517;28;19988;-72
2022/09/16 04:04:42;;;;;;;;;;;;;;;;;;4995805;28;19929;-72
2022/09/16 04:07:09;;;;;;;;;;;;;;;;;;5012872;28;19929;-73
2022/09/16 04:09:37;;;;;;;;;;;;;;;;;;5011862;28;20024;-72
2022/09/16 04:12:04;;;;;;;;;;;;;;;;;;5017522;28;20043;-72
2022/09/16 04:14:31;;;;;;;;;;;;;;;;;;5020547;28;19935;-71
2022/09/16 04:16:58;;;;;;;;;;;;;;;;;;4997709;28;20381;-72
2022/09/16 04:19:25;;;;;;;;;;;;;;;;;;5017608;28;19925;-72
2022/09/16 04:21:52;;;;;;;;;;;;;;;;;;5013615;28;19935;-72
2022/09/16 04:24:19;;;;;;;;;;;;;;;;;;5015275;28;20295;-72
2022/09/16 04:26:46;;;;;;;;;;;;;;;;;;5014958;28;19940;-72
2022/09/16 04:29:13;;;;;;;;;;;;;;;;;;5012716;28;19928;-72
2022/09/16 04:31:40;;;;;;;;;;;;;;;;;;5012931;28;19983;-72
2022/09/16 04:34:07;;;;;;;;;;;;;;;;;;4999207;28;20388;-72
2022/09/16 04:36:34;;;;;;;;;;;;;;;;;;5015476;28;19925;-71
2022/09/16 04:39:01;;;;;;;;;;;;;;;;;;4997635;28;20683;-71
2022/09/16 04:41:28;;;;;;;;;;;;;;;;;;5017249;28;19925;-72
2022/09/16 04:43:55;;;;;;;;;;;;;;;;;;5005419;28;19925;-71
2022/09/16 04:46:22;;;;;;;;;;;;;;;;;;5006234;28;20016;-72
2022/09/16 04:48:49;;;;;;;;;;;;;;;;;;5024780;28;19921;-72
2022/09/16 04:51:16;;;;;;;;;;;;;;;;;;5006378;28;19931;-72
2022/09/16 04:53:43;;;;;;;;;;;;;;;;;;5022884;28;20031;-73
2022/09/16 04:56:13;;;;;;;;;;;;;;;;;;5017074;28;19925;-73
2022/09/16 04:58:40;;;;;;;;;;;;;;;;;;5013853;28;19987;-72
2022/09/16 05:01:11;;;;;;;;;;;;;;;;;;5022537;28;20334;-72
2022/09/16 05:03:38;;;;;;;;;;;;;;;;;;5021343;28;19968;-72
2022/09/16 05:06:05;;;;;;;;;;;;;;;;;;5023393;28;19925;-72
2022/09/16 05:08:34;;;;;;;;;;;;;;;;;;5027003;28;19951;-72
2022/09/16 05:11:01;;;;;;;;;;;;;;;;;;5024912;28;19947;-72
2022/09/16 05:13:28;;;;;;;;;;;;;;;;;;5025133;28;19921;-72
2022/09/16 05:15:55;;;;;;;;;;;;;;;;;;5017458;28;19932;-72
2022/09/16 05:18:22;;;;;;;;;;;;;;;;;;5023211;28;19998;-73
2022/09/16 05:20:49;;;;;;;;;;;;;;;;;;5020651;28;20403;-72
2022/09/16 05:23:16;;;;;;;;;;;;;;;;;;5003501;28;19926;-73
2022/09/16 05:25:43;;;;;;;;;;;;;;;;;;5013792;28;19943;-73
2022/09/16 05:28:10;;;;;;;;;;;;;;;;;;5017861;28;19936;-73
2022/09/16 05:30:37;;;;;;;;;;;;;;;;;;5026669;28;19986;-73
2022/09/16 05:33:04;;;;;;;;;;;;;;;;;;5023404;28;19929;-72
2022/09/16 05:35:31;;;;;;;;;;;;;;;;;;5016923;28;19926;-73
2022/09/16 05:37:58;;;;;;;;;;;;;;;;;;5020467;28;19937;-72
2022/09/16 05:40:26;;;;;;;;;;;;;;;;;;5004342;28;20016;-72
2022/09/16 05:42:53;;;;;;;;;;;;;;;;;;5022468;28;19932;-73
2022/09/16 05:45:20;;;;;;;;;;;;;;;;;;4998799;28;19928;-72
2022/09/16 05:47:47;;;;;;;;;;;;;;;;;;5021306;28;19931;-73
2022/09/16 05:50:14;;;;;;;;;;;;;;;;;;5003783;28;19933;-72
2022/09/16 05:52:41;;;;;;;;;;;;;;;;;;5023289;28;19921;-72
2022/09/16 05:55:08;;;;;;;;;;;;;;;;;;5006787;28;19925;-72
2022/09/16 05:57:35;;;;;;;;;;;;;;;;;;5022204;28;19932;-73
2022/09/16 06:00:02;;;;;;;;;;;;;;;;;;5027139;28;20291;-72
2022/09/16 06:02:29;;;;;;;;;;;;;;;;;;5021895;28;20302;-72
2022/09/16 06:04:58;;;;;;;;;;;;;;;;;;5025558;28;19921;-72
2022/09/16 06:07:25;;;;;;;;;;;;;;;;;;5019642;28;20394;-72
2022/09/16 06:09:52;;;;;;;;;;;;;;;;;;5009079;28;19924;-72
2022/09/16 06:12:19;;;;;;;;;;;;;;;;;;5023809;28;20007;-72
2022/09/16 06:14:46;;;;;;;;;;;;;;;;;;5000011;28;19929;-72
2022/09/16 06:17:13;;;;;;;;;;;;;;;;;;5020931;28;19983;-73
2022/09/16 06:19:40;;;;;;;;;;;;;;;;;;5019866;28;20032;-72
2022/09/16 06:22:07;;;;;;;;;;;;;;;;;;5017249;28;19925;-72
2022/09/16 06:24:34;;;;;;;;;;;;;;;;;;5003024;28;20308;-72
2022/09/16 06:27:01;;;;;;;;;;;;;;;;;;5002070;28;19939;-72
2022/09/16 06:29:28;;;;;;;;;;;;;;;;;;5024115;28;19925;-73
2022/09/16 06:31:56;;;;;;;;;;;;;;;;;;5023037;28;19968;-72
2022/09/16 06:34:23;;;;;;;;;;;;;;;;;;5023770;28;20029;-72
2022/09/16 06:36:50;;;;;;;;;;;;;;;;;;5025624;28;20285;-72
2022/09/16 06:39:17;;;;;;;;;;;;;;;;;;5005810;28;19925;-72
2022/09/16 06:41:44;;;;;;;;;;;;;;;;;;5024347;28;19925;-72
2022/09/16 06:44:11;;;;;;;;;;;;;;;;;;5019093;28;19948;-72
2022/09/16 06:46:38;;;;;;;;;;;;;;;;;;5004753;28;21048;-72
2022/09/16 06:49:05;;;;;;;;;;;;;;;;;;5019371;28;19928;-73
2022/09/16 06:51:32;;;;;;;;;;;;;;;;;;5004181;28;20011;-72
2022/09/16 06:53:59;;;;;;;;;;;;;;;;;;5018060;28;20399;-72
2022/09/16 06:56:27;;;;;;;;;;;;;;;;;;5022949;28;20407;-72
2022/09/16 06:58:54;;;;;;;;;;;;;;;;;;4999290;28;20356;-72
2022/09/16 07:01:21;;;;;;;;;;;;;;;;;;5021486;28;20338;-72
2022/09/16 07:03:48;;;;;;;;;;;;;;;;;;5023952;28;19929;-72
2022/09/16 07:06:15;;;;;;;;;;;;;;;;;;5022874;28;19922;-72
2022/09/16 07:08:42;;;;;;;;;;;;;;;;;;5005629;28;20400;-72
2022/09/16 07:11:09;;;;;;;;;;;;;;;;;;5023134;28;19925;-72
2022/09/16 07:13:36;;;;;;;;;;;;;;;;;;5023044;28;19948;-72
2022/09/16 07:16:03;;;;;;;;;;;;;;;;;;5023316;28;19983;-72
2022/09/16 07:18:30;;;;;;;;;;;;;;;;;;5022913;28;20394;-72
2022/09/16 07:20:57;;;;;;;;;;;;;;;;;;5002206;28;19932;-72
2022/09/16 07:23:24;;;;;;;;;;;;;;;;;;5002971;28;19936;-72
2022/09/16 07:25:51;;;;;;;;;;;;;;;;;;5006171;28;19925;-72
2022/09/16 07:28:18;;;;;;;;;;;;;;;;;;5020168;28;20387;-72
2022/09/16 07:30:45;;;;;;;;;;;;;;;;;;5017928;28;19921;-72
2022/09/16 07:33:12;;;;;;;;;;;;;;;;;;5019451;28;20299;-72
2022/09/16 07:35:39;;;;;;;;;;;;;;;;;;5019208;28;19926;-71
2022/09/16 07:38:06;;;;;;;;;;;;;;;;;;5016393;28;19929;-71
2022/09/16 07:40:34;;;;;;;;;;;;;;;;;;5006922;28;19925;-72
2022/09/16 07:43:01;;;;;;;;;;;;;;;;;;5002987;28;20456;-71
2022/09/16 07:45:28;;;;;;;;;;;;;;;;;;5024678;28;19931;-71
2022/09/16 07:47:55;;;;;;;;;;;;;;;;;;5019968;28;19925;-71
2022/09/16 07:50:22;;;;;;;;;;;;;;;;;;5024962;28;19929;-71
2022/09/16 07:52:49;;;;;;;;;;;;;;;;;;5003657;28;19975;-72
2022/09/16 07:55:16;;;;;;;;;;;;;;;;;;5003195;28;19933;-72
2022/09/16 07:57:43;;;;;;;;;;;;;;;;;;5025061;28;19925;-72
2022/09/16 08:00:10;;;;;;;;;;;;;;;;;;5005692;28;20043;-72
2022/09/16 08:02:37;;;;;;;;;;;;;;;;;;5019439;28;19921;-71
2022/09/16 08:05:04;;;;;;;;;;;;;;;;;;5004627;28;19925;-72
2022/09/16 08:07:31;;;;;;;;;;;;;;;;;;5007300;28;19925;-72
2022/09/16 08:09:58;;;;;;;;;;;;;;;;;;5021723;28;19933;-72
2022/09/16 08:12:25;;;;;;;;;;;;;;;;;;5005329;28;19987;-72
2022/09/16 08:14:52;;;;;;;;;;;;;;;;;;5022900;28;19921;-71
2022/09/16 08:17:19;;;;;;;;;;;;;;;;;;5018225;28;19956;-73
2022/09/16 08:19:46;;;;;;;;;;;;;;;;;;5019819;28;19921;-71
2022/09/16 08:22:13;;;;;;;;;;;;;;;;;;5022688;28;20422;-72
2022/09/16 08:24:40;;;;;;;;;;;;;;;;;;5002266;28;19971;-72
2022/09/16 08:27:07;;;;;;;;;;;;;;;;;;5006835;28;19929;-72
2022/09/16 08:29:34;;;;;;;;;;;;;;;;;;5021035;28;20603;-72
2022/09/16 08:32:01;;;;;;;;;;;;;;;;;;5020856;28;19936;-72
2022/09/16 08:34:28;;;;;;;;;;;;;;;;;;5016149;28;19925;-71
2022/09/16 08:36:55;;;;;;;;;;;;;;;;;;5026421;28;20391;-72
2022/09/16 08:39:22;;;;;;;;;;;;;;;;;;5019607;28;19921;-72
2022/09/16 08:41:49;;;;;;;;;;;;;;;;;;5010909;28;20406;-72
2022/09/16 08:44:16;;;;;;;;;;;;;;;;;;5017848;28;19933;-73
2022/09/16 08:46:43;;;;;;;;;;;;;;;;;;5027127;28;20528;-72
2022/09/16 08:49:10;;;;;;;;;;;;;;;;;;5025924;28;19925;-72
2022/09/16 08:51:37;;;;;;;;;;;;;;;;;;5010421;28;19971;-72
2022/09/16 08:54:04;;;;;;;;;;;;;;;;;;5028414;28;19928;-72
2022/09/16 08:56:33;;;;;;;;;;;;;;;;;;5005822;28;19924;-72
2022/09/16 08:59:00;;;;;;;;;;;;;;;;;;5026140;28;19921;-72
2022/09/16 09:01:27;;;;;;;;;;;;;;;;;;5022594;28;19968;-72
2022/09/16 09:03:54;;;;;;;;;;;;;;;;;;5010367;28;19940;-72
2022/09/16 09:06:21;;;;;;;;;;;;;;;;;;5008812;28;20381;-72
2022/09/16 09:08:49;;;;;;;;;;;;;;;;;;5026801;28;19936;-72
2022/09/16 09:11:16;;;;;;;;;;;;;;;;;;5005086;28;20733;-72
2022/09/16 09:13:43;;;;;;;;;;;;;;;;;;5005901;28;19931;-72
2022/09/16 09:16:11;;;;;;;;;;;;;;;;;;5021659;28;19928;-74
2022/09/16 09:18:38;;;;;;;;;;;;;;;;;;5018735;28;20290;-72
2022/09/16 09:21:05;;;;;;;;;;;;;;;;;;5010392;28;19982;-72
2022/09/16 09:23:32;;;;;;;;;;;;;;;;;;5005288;28;19925;-73
2022/09/16 09:25:59;;;;;;;;;;;;;;;;;;5008236;28;20382;-72
2022/09/16 09:28:26;;;;;;;;;;;;;;;;;;5023146;28;20398;-72
2022/09/16 09:30:53;;;;;;;;;;;;;;;;;;5003747;28;19933;-72
2022/09/16 09:33:20;;;;;;;;;;;;;;;;;;5002961;28;19921;-72
2022/09/16 09:35:48;;;;;;;;;;;;;;;;;;5020731;28;19933;-72
2022/09/16 09:38:15;;;;;;;;;;;;;;;;;;5019327;28;20046;-74
2022/09/16 09:40:42;;;;;;;;;;;;;;;;;;5025717;28;20306;-72
2022/09/16 09:43:09;;;;;;;;;;;;;;;;;;5024404;28;19936;-74
2022/09/16 09:45:36;;;;;;;;;;;;;;;;;;5008063;28;19951;-73
2022/09/16 09:48:04;;;;;;;;;;;;;;;;;;5023873;28;19925;-73
2022/09/16 09:50:31;;;;;;;;;;;;;;;;;;5021229;28;19982;-73
2022/09/16 09:52:58;;;;;;;;;;;;;;;;;;5023851;28;20372;-73
2022/09/16 09:55:25;;;;;;;;;;;;;;;;;;5006680;28;19929;-74
2022/09/16 09:57:52;;;;;;;;;;;;;;;;;;5025933;28;19921;-73
2022/09/16 10:00:20;;;;;;;;;;;;;;;;;;5016165;28;19925;-72
2022/09/16 10:02:47;;;;;;;;;;;;;;;;;;5026403;28;19936;-73
2022/09/16 10:05:14;;;;;;;;;;;;;;;;;;5005014;28;19925;-73
2022/09/16 10:07:41;;;;;;;;;;;;;;;;;;5006550;28;19929;-73
2022/09/16 10:10:08;;;;;;;;;;;;;;;;;;5026410;28;19932;-73
2022/09/16 10:12:35;;;;;;;;;;;;;;;;;;5001205;28;19929;-72
2022/09/16 10:15:02;;;;;;;;;;;;;;;;;;5001216;28;20280;-75
2022/09/16 10:17:29;;;;;;;;;;;;;;;;;;5006357;28;19925;-73
2022/09/16 10:19:56;;;;;;;;;;;;;;;;;;5008514;28;19924;-74
2022/09/16 10:22:23;;;;;;;;;;;;;;;;;;5020812;28;19955;-73
2022/09/16 10:24:53;;;;;;;;;;;;;;;;;;5022053;28;19921;-73
2022/09/16 10:27:20;;;;;;;;;;;;;;;;;;5025741;28;19921;-75
2022/09/16 10:29:47;;;;;;;;;;;;;;;;;;5006388;28;19956;-73
2022/09/16 10:32:14;;;;;;;;;;;;;;;;;;5006140;28;20534;-74
2022/09/16 10:34:41;;;;;;;;;;;;;;;;;;5004808;28;19921;-73
2022/09/16 10:37:11;;;;;;;;;;;;;;;;;;5005509;28;19987;-73
2022/09/16 10:39:39;;;;;;;;;;;;;;;;;;5021746;28;19963;-73
2022/09/16 10:42:06;;;;;;;;;;;;;;;;;;5021730;28;20303;-74
2022/09/16 10:44:33;;;;;;;;;;;;;;;;;;5016502;28;19976;-73
2022/09/16 10:47:00;;;;;;;;;;;;;;;;;;5024634;28;19925;-73
2022/09/16 10:49:27;;;;;;;;;;;;;;;;;;5025498;28;19999;-72
2022/09/16 10:51:54;;;;;;;;;;;;;;;;;;5021443;28;20295;-73
2022/09/16 10:54:21;;;;;;;;;;;;;;;;;;5002104;28;19920;-72
2022/09/16 10:56:48;;;;;;;;;;;;;;;;;;5003284;28;19929;-73
2022/09/16 10:59:15;;;;;;;;;;;;;;;;;;5002857;28;19936;-73
2022/09/16 11:01:43;;;;;;;;;;;;;;;;;;5021699;28;20038;-74
2022/09/16 11:04:10;;;;;;;;;;;;;;;;;;5024638;28;19925;-73
2022/09/16 11:06:37;;;;;;;;;;;;;;;;;;5023685;28;19921;-73
2022/09/16 11:09:04;;;;;;;;;;;;;;;;;;4999935;28;20368;-73
2022/09/16 11:11:31;;;;;;;;;;;;;;;;;;5024755;28;19925;-74
2022/09/16 11:13:58;;;;;;;;;;;;;;;;;;5006418;28;19925;-74
2022/09/16 11:16:25;;;;;;;;;;;;;;;;;;5019109;28;20492;-74
2022/09/16 11:18:53;;;;;;;;;;;;;;;;;;5004009;28;19928;-74
2022/09/16 11:21:20;;;;;;;;;;;;;;;;;;5021034;28;19924;-74
2022/09/16 11:23:47;;;;;;;;;;;;;;;;;;5003560;28;19921;-74
2022/09/16 11:26:14;;;;;;;;;;;;;;;;;;5019883;28;19947;-74
2022/09/16 11:28:41;;;;;;;;;;;;;;;;;;5021971;28;19928;-73
2022/09/16 11:31:08;;;;;;;;;;;;;;;;;;5022414;28;19996;-74
2022/09/16 11:33:35;;;;;;;;;;;;;;;;;;5015762;28;19936;-74
2022/09/16 11:36:02;;;;;;;;;;;;;;;;;;5025771;28;20265;-73
2022/09/16 11:38:37;;;;;;;;;;;;;;;;;;5019443;28;19984;-74
2022/09/16 11:41:04;;;;;;;;;;;;;;;;;;5019281;28;19972;-74
2022/09/16 11:43:31;;;;;;;;;;;;;;;;;;5013137;28;19925;-74
2022/09/16 11:45:58;;;;;;;;;;;;;;;;;;5020477;28;19932;-75
2022/09/16 11:48:25;;;;;;;;;;;;;;;;;;5024554;28;20526;-74
2022/09/16 11:50:52;;;;;;;;;;;;;;;;;;5004663;28;19921;-74
2022/09/16 11:53:19;;;;;;;;;;;;;;;;;;5004708;28;19936;-74
2022/09/16 11:55:46;;;;;;;;;;;;;;;;;;5006018;28;19921;-74
2022/09/16 11:58:13;;;;;;;;;;;;;;;;;;5004703;28;19971;-74
2022/09/16 12:00:40;;;;;;;;;;;;;;;;;;5025428;28;19921;-74
2022/09/16 12:03:07;;;;;;;;;;;;;;;;;;5026517;28;19930;-74
2022/09/16 12:05:34;;;;;;;;;;;;;;;;;;5027995;28;20668;-75
2022/09/16 12:08:02;;;;;;;;;;;;;;;;;;5027617;28;19945;-75
2022/09/16 12:10:29;;;;;;;;;;;;;;;;;;5006173;28;19976;-75
2022/09/16 12:12:57;;;;;;;;;;;;;;;;;;5007870;28;19968;-74
2022/09/16 12:15:25;;;;;;;;;;;;;;;;;;5006300;28;19925;-74
2022/09/16 12:17:52;;;;;;;;;;;;;;;;;;5028610;28;19988;-74
2022/09/16 12:20:19;;;;;;;;;;;;;;;;;;5004727;28;20002;-73
2022/09/16 12:22:46;;;;;;;;;;;;;;;;;;5023777;28;20407;-73
2022/09/16 12:25:13;;;;;;;;;;;;;;;;;;5004353;28;20419;-75
2022/09/16 12:27:40;;;;;;;;;;;;;;;;;;5026098;28;19925;-74
2022/09/16 12:30:08;;;;;;;;;;;;;;;;;;5026928;28;20321;-75
2022/09/16 12:32:35;;;;;;;;;;;;;;;;;;5010242;28;19976;-74
2022/09/16 12:35:02;;;;;;;;;;;;;;;;;;5009644;28;20787;-74
2022/09/16 12:37:29;;;;;;;;;;;;;;;;;;5006771;28;20363;-72
2022/09/16 12:39:56;;;;;;;;;;;;;;;;;;5016409;28;20024;-73
2022/09/16 12:42:23;;;;;;;;;;;;;;;;;;5004364;28;19925;-73
2022/09/16 12:44:50;;;;;;;;;;;;;;;;;;5020222;28;19964;-75
2022/09/16 12:47:17;;;;;;;;;;;;;;;;;;5021937;28;19925;-74
2022/09/16 12:49:45;;;;;;;;;;;;;;;;;;5006306;28;20588;-73
2022/09/16 12:52:12;;;;;;;;;;;;;;;;;;5006314;28;19931;-74
2022/09/16 12:54:39;;;;;;;;;;;;;;;;;;5008959;28;20354;-73
2022/09/16 12:57:06;;;;;;;;;;;;;;;;;;5025652;28;19929;-73
2022/09/16 12:59:33;;;;;;;;;;;;;;;;;;5001671;28;19924;-74
2022/09/16 13:02:00;;;;;;;;;;;;;;;;;;5024352;28;19925;-74
2022/09/16 13:04:28;;;;;;;;;;;;;;;;;;5024278;28;20443;-74
2022/09/16 13:06:57;;;;;;;;;;;;;;;;;;5018244;28;20217;-75
2022/09/16 13:09:24;;;;;;;;;;;;;;;;;;5010126;28;20315;-73
2022/09/16 13:11:51;;;;;;;;;;;;;;;;;;5023954;28;20499;-73
2022/09/16 13:14:18;;;;;;;;;;;;;;;;;;5022088;28;19921;-73
2022/09/16 13:16:45;;;;;;;;;;;;;;;;;;5007861;28;19929;-73
2022/09/16 13:19:12;;;;;;;;;;;;;;;;;;5026384;28;19924;-76
2022/09/16 13:21:39;;;;;;;;;;;;;;;;;;5027321;28;19924;-74
2022/09/16 13:24:06;;;;;;;;;;;;;;;;;;4999518;28;19926;-75
2022/09/16 13:26:33;;;;;;;;;;;;;;;;;;5004488;28;19928;-74
2022/09/16 13:29:00;;;;;;;;;;;;;;;;;;5008990;28;19932;-74
2022/09/16 13:31:27;;;;;;;;;;;;;;;;;;5007464;28;19921;-74
2022/09/16 13:33:54;;;;;;;;;;;;;;;;;;5005583;28;19960;-74
2022/09/16 13:36:21;;;;;;;;;;;;;;;;;;5028673;28;20024;-74
2022/09/16 13:38:49;;;;;;;;;;;;;;;;;;5001788;28;20636;-74
2022/09/16 13:41:16;;;;;;;;;;;;;;;;;;5025879;28;20027;-75
2022/09/16 13:43:43;;;;;;;;;;;;;;;;;;5022015;28;20296;-74
2022/09/16 13:46:14;;;;;;;;;;;;;;;;;;5006015;28;19925;-74
2022/09/16 13:48:41;;;;;;;;;;;;;;;;;;5007600;28;20016;-74
2022/09/16 13:51:08;;;;;;;;;;;;;;;;;;5024318;28;20737;-74
2022/09/16 13:53:35;;;;;;;;;;;;;;;;;;5019549;28;19932;-73
2022/09/16 13:56:03;;;;;;;;;;;;;;;;;;5026588;28;21113;-74
2022/09/16 13:58:30;;;;;;;;;;;;;;;;;;5024804;28;19960;-74
2022/09/16 14:00:57;;;;;;;;;;;;;;;;;;5001254;28;19922;-73
2022/09/16 14:03:24;;;;;;;;;;;;;;;;;;5024916;28;19932;-74
2022/09/16 14:05:51;;;;;;;;;;;;;;;;;;5016046;28;19929;-73
2022/09/16 14:08:18;;;;;;;;;;;;;;;;;;5020380;28;19928;-73
2022/09/16 14:10:45;;;;;;;;;;;;;;;;;;5023721;28;19929;-74
2022/09/16 14:13:12;;;;;;;;;;;;;;;;;;5021893;28;19921;-74
2022/09/16 14:15:39;;;;;;;;;;;;;;;;;;5005320;28;19932;-75
2022/09/16 14:18:06;;;;;;;;;;;;;;;;;;5006165;28;19925;-73
2022/09/16 14:20:34;;;;;;;;;;;;;;;;;;5022063;28;19999;-73
2022/09/16 14:23:01;;;;;;;;;;;;;;;;;;5024076;28;19979;-72
2022/09/16 14:25:28;;;;;;;;;;;;;;;;;;5000513;28;19982;-70
2022/09/16 14:27:57;;;;;;;;;;;;;;;;;;5019258;28;19927;-71
2022/09/16 14:30:24;;;;;;;;;;;;;;;;;;5013965;28;19925;-71
2022/09/16 14:32:51;;;;;;;;;;;;;;;;;;5012813;28;20360;-70
2022/09/16 14:35:18;;;;;;;;;;;;;;;;;;5022568;28;19925;-71
2022/09/16 14:37:45;;;;;;;;;;;;;;;;;;5025329;28;20536;-71
2022/09/16 14:40:13;;;;;;;;;;;;;;;;;;5022833;28;19928;-70
2022/09/16 14:42:40;;;;;;;;;;;;;;;;;;5021781;28;19936;-72
2022/09/16 14:45:07;;;;;;;;;;;;;;;;;;5024924;28;20310;-71
2022/09/16 14:47:34;;;;;;;;;;;;;;;;;;5020285;28;19932;-70
2022/09/16 14:50:02;;;;;;;;;;;;;;;;;;5023324;28;19932;-70
2022/09/16 14:52:29;;;;;;;;;;;;;;;;;;5013636;28;19968;-71
2022/09/16 14:54:56;;;;;;;;;;;;;;;;;;5021481;28;19935;-72
2022/09/16 14:57:23;;;;;;;;;;;;;;;;;;5005281;28;19944;-72
2022/09/16 14:59:50;;;;;;;;;;;;;;;;;;5023028;28;19921;-73
2022/09/16 15:02:17;;;;;;;;;;;;;;;;;;5023283;28;19968;-69
2022/09/16 15:04:45;;;;;;;;;;;;;;;;;;5022211;28;20307;-71
2022/09/16 15:07:12;;;;;;;;;;;;;;;;;;4996224;28;19966;-70
2022/09/16 15:09:39;;;;;;;;;;;;;;;;;;5003327;28;19932;-70
2022/09/16 15:12:06;;;;;;;;;;;;;;;;;;5020827;28;20430;-71
2022/09/16 15:14:33;;;;;;;;;;;;;;;;;;5020369;28;19921;-71
2022/09/16 15:17:01;;;;;;;;;;;;;;;;;;5021156;28;19925;-70
2022/09/16 15:19:28;;;;;;;;;;;;;;;;;;5022121;28;19972;-69
2022/09/16 15:21:55;;;;;;;;;;;;;;;;;;5024147;28;19955;-71
2022/09/16 15:24:23;;;;;;;;;;;;;;;;;;5024378;28;19928;-69
2022/09/16 15:26:52;;;;;;;;;;;;;;;;;;5020393;28;20016;-71
2022/09/16 15:29:19;;;;;;;;;;;;;;;;;;5014673;28;20394;-70
2022/09/16 15:31:46;;;;;;;;;;;;;;;;;;5017004;28;19929;-71
2022/09/16 15:34:14;;;;;;;;;;;;;;;;;;5024554;28;19925;-71
2022/09/16 15:36:41;;;;;;;;;;;;;;;;;;5020164;28;19932;-71
2022/09/16 15:39:08;;;;;;;;;;;;;;;;;;5002157;28;20015;-72
2022/09/16 15:41:35;;;;;;;;;;;;;;;;;;5022733;28;20360;-72
2022/09/16 15:44:02;;;;;;;;;;;;;;;;;;5021612;28;19932;-74
2022/09/16 15:46:29;;;;;;;;;;;;;;;;;;5023508;28;20569;-73
2022/09/16 15:48:57;;;;;;;;;;;;;;;;;;5021216;28;19924;-74
2022/09/16 15:51:24;;;;;;;;;;;;;;;;;;5008301;28;20015;-75
2022/09/16 15:53:51;;;;;;;;;;;;;;;;;;5025309;28;19924;-74
2022/09/16 15:56:18;;;;;;;;;;;;;;;;;;5023409;28;19931;-74
2022/09/16 15:58:46;;;;;;;;;;;;;;;;;;5021426;28;19925;-75
2022/09/16 16:01:13;;;;;;;;;;;;;;;;;;5023348;28;19960;-75
2022/09/16 16:03:40;;;;;;;;;;;;;;;;;;5021060;28;20012;-75
2022/09/16 16:06:07;;;;;;;;;;;;;;;;;;5020488;28;19928;-75
2022/09/16 16:08:34;;;;;;;;;;;;;;;;;;5025135;28;19927;-75
2022/09/16 16:11:01;;;;;;;;;;;;;;;;;;5023263;28;19936;-75
2022/09/16 16:13:28;;;;;;;;;;;;;;;;;;5022731;28;19958;-75
2022/09/16 16:15:55;;;;;;;;;;;;;;;;;;5005796;28;20015;-76
2022/09/16 16:18:22;;;;;;;;;;;;;;;;;;5025060;28;19948;-75
2022/09/16 16:20:49;;;;;;;;;;;;;;;;;;5002833;28;20005;-75
2022/09/16 16:23:16;;;;;;;;;;;;;;;;;;5021742;28;20628;-76
2022/09/16 16:25:43;;;;;;;;;;;;;;;;;;5020492;28;20533;-76
2022/09/16 16:28:10;;;;;;;;;;;;;;;;;;5017653;28;19932;-75
2022/09/16 16:30:39;;;;;;;;;;;;;;;;;;5001688;28;19956;-77
2022/09/16 16:33:06;;;;;;;;;;;;;;;;;;5017456;28;20430;-74
2022/09/16 16:35:33;;;;;;;;;;;;;;;;;;5023337;28;19925;-74
2022/09/16 16:38:00;;;;;;;;;;;;;;;;;;5018055;28;19932;-74
2022/09/16 16:40:27;;;;;;;;;;;;;;;;;;4996943;28;20158;-72
2022/09/16 16:42:54;;;;;;;;;;;;;;;;;;5013996;28;19928;-73
2022/09/16 16:45:21;;;;;;;;;;;;;;;;;;5023626;28;19925;-73